createdAt,value
2019-01-19T00:01:28.657Z,99061.19
2019-01-19T00:04:36.737Z,99057.66
2019-01-19T00:07:43.808Z,99061.31
2019-01-19T00:10:58.899Z,99054.47
2019-01-19T00:14:11.320Z,99058.36
2019-01-19T00:17:33.167Z,99061.45
2019-01-19T00:20:38.883Z,99061.18
2019-01-19T00:23:46.059Z,99059.70
2019-01-19T00:26:39.025Z,99059.17
2019-01-19T00:29:32.408Z,99072.38
2019-01-19T00:32:51.578Z,99069.38
2019-01-19T00:36:08.889Z,99071.95
2019-01-19T00:39:02.468Z,99067.84
2019-01-19T00:42:26.745Z,99073.51
2019-01-19T00:45:42.015Z,99069.54
2019-01-19T00:48:41.013Z,99070.14
2019-01-19T00:51:48.419Z,99070.66
2019-01-19T00:54:32.264Z,99066.39
2019-01-19T00:57:47.526Z,99070.14
2019-01-19T01:00:32.620Z,99064.56
2019-01-19T01:03:19.513Z,99074.05
2019-01-19T01:06:34.855Z,99066.52
2019-01-19T01:09:40.873Z,99063.86
2019-01-19T01:12:36.993Z,99068.72
2019-01-19T01:15:36.912Z,99061.84
2019-01-19T01:18:36.731Z,99067.35
2019-01-19T01:21:30.865Z,99058.04
2019-01-19T01:24:40.508Z,99064.38
2019-01-19T01:27:22.119Z,99062.89
2019-01-19T01:30:33.612Z,99033.17
2019-01-19T01:33:45.641Z,99060.36
2019-01-19T01:37:09.322Z,99059.03
2019-01-19T01:40:33.852Z,99055.07
2019-01-19T01:43:53.707Z,99054.06
2019-01-19T01:47:17.157Z,99043.92
2019-01-19T01:50:16.782Z,99049.12
2019-01-19T01:53:44.045Z,99044.55
2019-01-19T01:56:16.186Z,99037.67
2019-01-19T01:59:18.209Z,99024.58
2019-01-19T02:02:39.887Z,99026.69
2019-01-19T02:05:43.507Z,99022.14
2019-01-19T02:08:59.008Z,99014.98
2019-01-19T02:11:55.246Z,99016.46
2019-01-19T02:15:10.271Z,99014.22
2019-01-19T02:18:08.385Z,99018.94
2019-01-19T02:20:55.592Z,99009.98
2019-01-19T02:23:48.138Z,99011.00
2019-01-19T02:26:45.428Z,99007.08
2019-01-19T02:29:56.839Z,99002.87
2019-01-19T02:33:23.734Z,98998.25
2019-01-19T02:36:35.549Z,98996.37
2019-01-19T02:39:29.097Z,98992.50
2019-01-19T02:42:43.379Z,98984.55
2019-01-19T02:45:56.856Z,98978.51
2019-01-19T02:49:24.406Z,98969.85
2019-01-19T02:52:33.474Z,98969.98
2019-01-19T02:56:00.963Z,98966.66
2019-01-19T02:59:00.228Z,98969.96
2019-01-19T03:01:44.087Z,98965.70
2019-01-19T03:04:56.285Z,98960.48
2019-01-19T03:08:10.225Z,98955.56
2019-01-19T03:11:21.518Z,98960.27
2019-01-19T03:14:16.014Z,98962.87
2019-01-19T03:17:21.029Z,98948.52
2019-01-19T03:20:42.386Z,98957.34
2019-01-19T03:24:06.885Z,98948.69
2019-01-19T03:27:03.299Z,98947.38
2019-01-19T03:30:33.988Z,98938.56
2019-01-19T03:33:42.082Z,98939.62
2019-01-19T03:36:42.823Z,98938.79
2019-01-19T03:39:52.140Z,98941.76
2019-01-19T03:43:09.352Z,98934.40
2019-01-19T03:46:21.350Z,98936.18
2019-01-19T03:49:18.002Z,98931.27
2019-01-19T03:52:24.677Z,98930.30
2019-01-19T03:55:13.023Z,98931.92
2019-01-19T03:58:24.638Z,98930.00
2019-01-19T04:01:08.768Z,98926.45
2019-01-19T04:04:06.732Z,98921.06
2019-01-19T04:07:02.774Z,98922.88
2019-01-19T04:09:59.812Z,98914.93
2019-01-19T04:13:11.045Z,98912.66
2019-01-19T04:16:33.252Z,98914.98
2019-01-19T04:19:50.363Z,98913.36
2019-01-19T04:22:32.974Z,98902.14
2019-01-19T04:25:34.630Z,98895.78
2019-01-19T04:28:07.761Z,98901.34
2019-01-19T04:30:39.073Z,98898.09
2019-01-19T04:33:10.956Z,98896.13
2019-01-19T04:35:42.218Z,98893.86
2019-01-19T04:38:13.489Z,98894.17
2019-01-19T04:40:44.766Z,98895.16
2019-01-19T04:43:16.116Z,98893.55
2019-01-19T04:45:47.429Z,98900.08
2019-01-19T04:48:20.357Z,98901.11
2019-01-19T04:50:52.369Z,98902.38
2019-01-19T04:53:23.656Z,98906.78
2019-01-19T04:55:55.115Z,98905.95
2019-01-19T04:58:26.589Z,98900.08
2019-01-19T05:00:57.940Z,98906.33
2019-01-19T05:03:29.276Z,98903.89
2019-01-19T05:06:00.607Z,98893.13
2019-01-19T05:08:31.858Z,98898.84
2019-01-19T05:11:03.342Z,98896.91
2019-01-19T05:13:34.631Z,98894.95
2019-01-19T05:16:06.739Z,98902.47
2019-01-19T05:18:37.991Z,98899.55
2019-01-19T05:21:09.410Z,98899.89
2019-01-19T05:23:40.840Z,98902.16
2019-01-19T05:26:12.194Z,98895.63
2019-01-19T05:28:43.490Z,98901.17
2019-01-19T05:31:14.799Z,98904.14
2019-01-19T05:33:46.077Z,98904.00
2019-01-19T05:36:17.487Z,98907.09
2019-01-19T05:38:48.760Z,98901.56
2019-01-19T05:41:20.111Z,98895.82
2019-01-19T05:43:51.518Z,98906.27
2019-01-19T05:46:22.807Z,98906.27
2019-01-19T05:48:54.163Z,98901.87
2019-01-19T05:51:25.521Z,98898.95
2019-01-19T05:53:56.760Z,98898.94
2019-01-19T05:56:28.142Z,98896.02
2019-01-19T05:58:59.513Z,98899.42
2019-01-19T06:01:30.842Z,98896.64
2019-01-19T06:04:02.114Z,98898.28
2019-01-19T06:06:33.414Z,98889.80
2019-01-19T06:09:07.756Z,98894.70
2019-01-19T06:11:38.999Z,98888.97
2019-01-19T06:14:10.246Z,98892.25
2019-01-19T06:16:44.076Z,98886.85
2019-01-19T06:19:15.744Z,98890.28
2019-01-19T06:21:54.745Z,98882.31
2019-01-19T06:24:26.011Z,98884.28
2019-01-19T06:26:57.333Z,98880.19
2019-01-19T06:29:28.573Z,98882.48
2019-01-19T06:31:59.916Z,98877.26
2019-01-19T06:34:31.240Z,98868.91
2019-01-19T06:37:04.337Z,98875.13
2019-01-19T06:39:35.853Z,98875.45
2019-01-19T06:42:07.146Z,98878.04
2019-01-19T06:44:38.567Z,98881.66
2019-01-19T06:47:10.119Z,98880.66
2019-01-19T06:49:41.470Z,98874.95
2019-01-19T06:52:12.731Z,98876.42
2019-01-19T06:54:44.069Z,98877.39
2019-01-19T06:57:15.436Z,98875.77
2019-01-19T06:59:46.761Z,98883.44
2019-01-19T07:02:18.267Z,98873.13
2019-01-19T07:04:49.705Z,98890.45
2019-01-19T07:07:21.024Z,98880.00
2019-01-19T07:09:52.371Z,98889.48
2019-01-19T07:12:23.739Z,98879.35
2019-01-19T07:14:55.137Z,98879.98
2019-01-19T07:17:26.626Z,98892.10
2019-01-19T07:19:57.896Z,98876.40
2019-01-19T07:22:29.185Z,98876.72
2019-01-19T07:25:00.877Z,98879.64
2019-01-19T07:27:32.241Z,98881.28
2019-01-19T07:30:04.982Z,98877.88
2019-01-19T07:32:36.256Z,98880.00
2019-01-19T07:35:08.661Z,98877.05
2019-01-19T07:37:39.990Z,98883.75
2019-01-19T07:40:13.299Z,98883.75
2019-01-19T07:42:45.092Z,98880.97
2019-01-19T07:45:16.981Z,98881.97
2019-01-19T07:47:48.338Z,98887.35
2019-01-19T07:50:19.698Z,98884.09
2019-01-19T07:52:51.101Z,98888.19
2019-01-19T07:55:22.352Z,98881.67
2019-01-19T07:57:53.640Z,98879.70
2019-01-19T08:00:27.603Z,98879.87
2019-01-19T08:02:58.931Z,98880.20
2019-01-19T08:05:31.847Z,98879.07
2019-01-19T08:08:03.218Z,98882.35
2019-01-19T08:10:34.638Z,98878.10
2019-01-19T08:13:05.930Z,98875.51
2019-01-19T08:15:37.168Z,98875.83
2019-01-19T08:18:08.723Z,98877.48
2019-01-19T08:20:40.007Z,98872.24
2019-01-19T08:23:11.913Z,98871.59
2019-01-19T08:25:43.326Z,98860.97
2019-01-19T08:28:14.675Z,98865.39
2019-01-19T08:30:46.024Z,98867.66
2019-01-19T08:33:17.334Z,98870.94
2019-01-19T08:35:48.739Z,98863.08
2019-01-19T08:38:20.387Z,98870.60
2019-01-19T08:40:51.761Z,98862.45
2019-01-19T08:43:30.016Z,98863.73
2019-01-19T08:46:02.317Z,98860.45
2019-01-19T08:48:33.692Z,98848.86
2019-01-19T08:51:05.244Z,98855.38
2019-01-19T08:53:38.403Z,98847.85
2019-01-19T08:56:09.650Z,98854.39
2019-01-19T08:58:41.135Z,98845.75
2019-01-19T09:01:12.409Z,98841.16
2019-01-19T09:03:43.830Z,98850.31
2019-01-19T09:06:15.127Z,98849.02
2019-01-19T09:08:46.390Z,98842.78
2019-01-19T09:11:17.725Z,98852.05
2019-01-19T09:13:49.105Z,98853.52
2019-01-19T09:16:22.292Z,98851.39
2019-01-19T09:18:53.615Z,98848.56
2019-01-19T09:21:24.941Z,98854.07
2019-01-19T09:24:00.612Z,98850.11
2019-01-19T09:26:31.851Z,98854.19
2019-01-19T09:29:03.206Z,98858.11
2019-01-19T09:31:34.564Z,98851.67
2019-01-19T09:34:06.231Z,98845.89
2019-01-19T09:36:37.494Z,98853.61
2019-01-19T09:39:12.483Z,98855.89
2019-01-19T09:41:43.756Z,98855.52
2019-01-19T09:44:15.064Z,98852.31
2019-01-19T09:46:46.624Z,98846.33
2019-01-19T09:49:18.059Z,98848.50
2019-01-19T09:51:49.360Z,98847.48
2019-01-19T09:54:22.296Z,98838.56
2019-01-19T09:56:53.560Z,98844.25
2019-01-19T09:59:24.909Z,98851.20
2019-01-19T10:01:56.298Z,98836.37
2019-01-19T10:04:29.242Z,98835.96
2019-01-19T10:07:00.504Z,98842.03
2019-01-19T10:09:31.811Z,98831.39
2019-01-19T10:12:03.258Z,98831.48
2019-01-19T10:14:34.613Z,98838.38
2019-01-19T10:17:06.062Z,98824.72
2019-01-19T10:19:37.403Z,98829.91
2019-01-19T10:22:08.708Z,98823.31
2019-01-19T10:24:39.974Z,98825.88
2019-01-19T10:27:11.289Z,98825.13
2019-01-19T10:29:42.696Z,98761.50
2019-01-19T10:32:13.955Z,98814.48
2019-01-19T10:34:45.235Z,98811.53
2019-01-19T10:37:17.498Z,98813.23
2019-01-19T10:39:48.794Z,98813.40
2019-01-19T10:42:20.298Z,98805.76
2019-01-19T10:44:51.692Z,98804.23
2019-01-19T10:47:22.932Z,98813.06
2019-01-19T10:49:54.262Z,98808.24
2019-01-19T10:52:25.685Z,98802.37
2019-01-19T10:54:56.959Z,98793.42
2019-01-19T10:57:28.352Z,98793.42
2019-01-19T10:59:59.658Z,98789.84
2019-01-19T11:02:30.917Z,98790.70
2019-01-19T11:05:02.452Z,98786.58
2019-01-19T11:07:33.876Z,98785.04
2019-01-19T11:10:06.417Z,98776.59
2019-01-19T11:12:39.586Z,98785.48
2019-01-19T11:15:13.871Z,98779.61
2019-01-19T11:17:46.650Z,98772.72
2019-01-19T11:20:19.990Z,98774.28
2019-01-19T11:22:51.452Z,98774.77
2019-01-19T11:25:25.630Z,98763.02
2019-01-19T11:27:58.394Z,98769.84
2019-01-19T11:30:31.633Z,98747.78
2019-01-19T11:33:05.809Z,98749.23
2019-01-19T11:35:37.519Z,98744.69
2019-01-19T11:38:12.008Z,98754.87
2019-01-19T11:40:43.479Z,98756.91
2019-01-19T11:43:19.180Z,98743.41
2019-01-19T11:45:51.567Z,98742.64
2019-01-19T11:48:25.478Z,98744.17
2019-01-19T11:50:59.365Z,98738.33
2019-01-19T11:53:33.506Z,98739.05
2019-01-19T11:56:12.174Z,98735.27
2019-01-19T11:58:41.502Z,98737.41
2019-01-19T12:01:15.553Z,98734.78
2019-01-19T12:03:46.806Z,98723.09
2019-01-19T12:06:20.411Z,98727.84
2019-01-19T12:08:51.674Z,98721.99
2019-01-19T12:11:25.892Z,98712.84
2019-01-19T12:14:00.532Z,98717.43
2019-01-19T12:16:32.827Z,98721.86
2019-01-19T12:19:05.654Z,98719.15
2019-01-19T12:21:37.816Z,98714.45
2019-01-19T12:24:13.334Z,98712.09
2019-01-19T12:26:45.815Z,98704.30
2019-01-19T12:29:21.422Z,98695.77
2019-01-19T12:31:53.719Z,98705.39
2019-01-19T12:34:29.388Z,98693.45
2019-01-19T12:37:02.281Z,98684.51
2019-01-19T12:39:33.984Z,98678.90
2019-01-19T12:42:07.727Z,98691.33
2019-01-19T12:44:41.809Z,98683.91
2019-01-19T12:47:14.728Z,98677.59
2019-01-19T12:49:46.946Z,98677.34
2019-01-19T12:52:22.487Z,98671.09
2019-01-19T12:54:53.880Z,98688.18
2019-01-19T12:57:25.521Z,98664.94
2019-01-19T12:59:59.288Z,98674.52
2019-01-19T13:02:31.760Z,98672.28
2019-01-19T13:05:09.360Z,98666.25
2019-01-19T13:07:40.971Z,98661.32
2019-01-19T13:10:23.077Z,98666.98
2019-01-19T13:13:14.057Z,98666.98
2019-01-19T13:16:17.152Z,98663.91
2019-01-19T13:19:12.497Z,98658.61
2019-01-19T13:22:24.780Z,98660.41
2019-01-19T13:25:18.696Z,98663.11
2019-01-19T13:28:37.813Z,98666.41
2019-01-19T13:31:46.731Z,98654.05
2019-01-19T13:34:48.549Z,98661.67
2019-01-19T13:37:49.390Z,98654.95
2019-01-19T13:41:06.969Z,98654.83
2019-01-19T13:44:33.260Z,98652.03
2019-01-19T13:47:40.339Z,98642.71
2019-01-19T13:50:57.409Z,98652.14
2019-01-19T13:54:11.321Z,98658.45
2019-01-19T13:57:14.504Z,98650.36
2019-01-19T14:00:33.491Z,98658.23
2019-01-19T14:03:48.343Z,98647.53
2019-01-19T14:07:09.791Z,98646.16
2019-01-19T14:10:24.841Z,98638.28
2019-01-19T14:13:30.694Z,98643.11
2019-01-19T14:16:18.748Z,98641.08
2019-01-19T14:19:47.470Z,98639.77
2019-01-19T14:23:08.112Z,98641.51
2019-01-19T14:26:23.813Z,98637.97
2019-01-19T14:29:31.105Z,98634.69
2019-01-19T14:32:46.591Z,98632.69
2019-01-19T14:36:06.276Z,98623.17
2019-01-19T14:39:25.802Z,98640.81
2019-01-19T14:42:56.959Z,98640.81
2019-01-19T14:46:00.964Z,98629.53
2019-01-19T14:49:08.639Z,98625.37
2019-01-19T14:52:35.999Z,98627.98
2019-01-19T14:55:45.137Z,98627.63
2019-01-19T14:58:52.544Z,98626.70
2019-01-19T15:02:06.899Z,98619.89
2019-01-19T15:05:04.158Z,98624.64
2019-01-19T15:08:19.913Z,98623.55
2019-01-19T15:11:32.640Z,98619.64
2019-01-19T15:14:33.873Z,98623.28
2019-01-19T15:17:35.836Z,98620.88
2019-01-19T15:20:37.605Z,98627.93
2019-01-19T15:23:37.874Z,98622.08
2019-01-19T15:26:51.717Z,98622.30
2019-01-19T15:29:54.664Z,98625.11
2019-01-19T15:32:52.123Z,98622.16
2019-01-19T15:35:55.820Z,98602.56
2019-01-19T15:38:40.945Z,98614.36
2019-01-19T15:41:53.341Z,98604.52
2019-01-19T15:45:01.967Z,98615.06
2019-01-19T15:48:12.833Z,98610.31
2019-01-19T15:51:35.791Z,98613.31
2019-01-19T15:54:37.779Z,98608.95
2019-01-19T15:58:05.264Z,98612.55
2019-01-19T16:01:14.348Z,98610.25
2019-01-19T16:04:32.557Z,98618.06
2019-01-19T16:07:30.137Z,98604.43
2019-01-19T16:10:29.271Z,98604.48
2019-01-19T16:13:35.839Z,98600.41
2019-01-19T16:16:53.489Z,98604.83
2019-01-19T16:19:55.390Z,98591.47
2019-01-19T16:22:48.506Z,98598.98
2019-01-19T16:25:55.161Z,98608.02
2019-01-19T16:29:09.952Z,98593.46
2019-01-19T16:32:08.085Z,98595.12
2019-01-19T16:35:17.053Z,98596.45
2019-01-19T16:38:27.407Z,98605.95
2019-01-19T16:41:45.867Z,98602.34
2019-01-19T16:45:09.922Z,98592.23
2019-01-19T16:48:22.051Z,98601.88
2019-01-19T16:51:32.705Z,98599.46
2019-01-19T16:54:47.796Z,98604.37
2019-01-19T16:57:49.618Z,98602.76
2019-01-19T17:01:04.426Z,98594.10
2019-01-19T17:04:30.232Z,98592.98
2019-01-19T17:07:11.066Z,98595.12
2019-01-19T17:10:05.116Z,98600.50
2019-01-19T17:13:18.281Z,98588.28
2019-01-19T17:16:18.664Z,98591.83
2019-01-19T17:19:15.196Z,98591.05
2019-01-19T17:22:26.522Z,98587.11
2019-01-19T17:25:41.365Z,98595.95
2019-01-19T17:28:46.674Z,98589.75
2019-01-19T17:31:46.295Z,98585.19
2019-01-19T17:34:49.491Z,98594.02
2019-01-19T17:37:38.356Z,98584.02
2019-01-19T17:40:43.477Z,98587.52
2019-01-19T17:43:36.886Z,98595.72
2019-01-19T17:47:01.976Z,98586.51
2019-01-19T17:49:46.965Z,98584.57
2019-01-19T17:52:47.573Z,98587.86
2019-01-19T17:55:57.345Z,98580.02
2019-01-19T17:58:56.038Z,98570.50
2019-01-19T18:02:30.009Z,98567.27
2019-01-19T18:05:56.889Z,98564.37
2019-01-19T18:08:58.346Z,98565.43
2019-01-19T18:11:50.194Z,98566.98
2019-01-19T18:14:30.630Z,98565.06
2019-01-19T18:17:52.914Z,98566.85
2019-01-19T18:21:15.192Z,98565.67
2019-01-19T18:24:26.714Z,98571.25
2019-01-19T18:27:48.081Z,98567.67
2019-01-19T18:30:50.061Z,98564.62
2019-01-19T18:34:10.731Z,98569.19
2019-01-19T18:37:09.906Z,98565.75
2019-01-19T18:40:17.331Z,98568.90
2019-01-19T18:42:58.801Z,98564.64
2019-01-19T18:46:08.125Z,98559.12
2019-01-19T18:49:25.735Z,98562.59
2019-01-19T18:52:40.596Z,98559.16
2019-01-19T18:55:34.783Z,98560.66
2019-01-19T18:58:45.671Z,98555.09
2019-01-19T19:01:49.925Z,98554.95
2019-01-19T19:04:59.704Z,98557.38
2019-01-19T19:08:16.990Z,98559.36
2019-01-19T19:11:33.241Z,98557.42
2019-01-19T19:14:33.115Z,98553.05
2019-01-19T19:17:36.336Z,98553.55
2019-01-19T19:20:19.638Z,98560.75
2019-01-19T19:23:24.292Z,98549.28
2019-01-19T19:26:57.978Z,98555.16
2019-01-19T19:30:11.535Z,98556.45
2019-01-19T19:33:19.449Z,98554.86
2019-01-19T19:36:34.889Z,98559.94
2019-01-19T19:39:33.729Z,98556.64
2019-01-19T19:42:45.526Z,98557.77
2019-01-19T19:45:43.395Z,98561.55
2019-01-19T19:48:54.931Z,98559.75
2019-01-19T19:52:00.375Z,98558.14
2019-01-19T19:54:34.945Z,98558.44
2019-01-19T19:57:07.069Z,98555.00
2019-01-19T19:59:38.834Z,98552.86
2019-01-19T20:02:12.921Z,98557.12
2019-01-19T20:04:44.300Z,98559.41
2019-01-19T20:07:17.793Z,98555.52
2019-01-19T20:09:51.890Z,98551.60
2019-01-19T20:12:25.895Z,98553.55
2019-01-19T20:15:00.246Z,98551.61
2019-01-19T20:17:33.876Z,98549.81
2019-01-19T20:20:06.690Z,98542.16
2019-01-19T20:22:38.687Z,98542.31
2019-01-19T20:25:10.946Z,98541.48
2019-01-19T20:27:43.816Z,98539.21
2019-01-19T20:30:18.260Z,98539.21
2019-01-19T20:32:50.720Z,98542.83
2019-01-19T20:35:22.794Z,98539.55
2019-01-19T20:37:56.155Z,98543.95
2019-01-19T20:40:27.513Z,98541.34
2019-01-19T20:42:58.788Z,98543.32
2019-01-19T20:45:30.139Z,98538.09
2019-01-19T20:48:03.830Z,98540.22
2019-01-19T20:50:37.082Z,98536.78
2019-01-19T20:53:11.104Z,98540.22
2019-01-19T20:55:45.381Z,98542.69
2019-01-19T20:58:19.011Z,98538.28
2019-01-19T21:00:53.237Z,98535.17
2019-01-19T21:03:27.054Z,98537.27
2019-01-19T21:06:00.155Z,98537.60
2019-01-19T21:08:35.795Z,98530.55
2019-01-19T21:11:08.659Z,98529.42
2019-01-19T21:13:39.934Z,98530.89
2019-01-19T21:16:13.963Z,98529.05
2019-01-19T21:18:47.038Z,98515.72
2019-01-19T21:21:19.125Z,98520.95
2019-01-19T21:23:52.094Z,98526.86
2019-01-19T21:26:25.999Z,98525.21
2019-01-19T21:28:58.162Z,98529.77
2019-01-19T21:31:31.155Z,98528.16
2019-01-19T21:34:03.278Z,98524.09
2019-01-19T21:36:37.849Z,98527.00
2019-01-19T21:39:10.257Z,98527.53
2019-01-19T21:41:45.885Z,98526.22
2019-01-19T21:44:18.114Z,98524.09
2019-01-19T21:46:53.757Z,98528.53
2019-01-19T21:49:26.148Z,98531.48
2019-01-19T21:52:00.123Z,98528.53
2019-01-19T21:54:33.173Z,98529.54
2019-01-19T21:57:06.291Z,98529.54
2019-01-19T21:59:39.140Z,98534.25
2019-01-19T22:02:12.302Z,98531.19
2019-01-19T22:04:44.153Z,98533.80
2019-01-19T22:07:15.412Z,98535.41
2019-01-19T22:09:49.219Z,98533.12
2019-01-19T22:12:23.344Z,98531.19
2019-01-19T22:14:56.313Z,98528.05
2019-01-19T22:17:30.210Z,98528.23
2019-01-19T22:20:03.315Z,98529.05
2019-01-19T22:22:35.304Z,98524.31
2019-01-19T22:25:06.946Z,98529.87
2019-01-19T22:27:43.246Z,98524.84
2019-01-19T22:30:16.697Z,98523.67
2019-01-19T22:32:49.451Z,98525.47
2019-01-19T22:35:26.109Z,98515.17
2019-01-19T22:37:59.645Z,98517.14
2019-01-19T22:40:34.360Z,98525.98
2019-01-19T22:43:09.115Z,98525.66
2019-01-19T22:45:41.456Z,98514.56
2019-01-19T22:48:15.483Z,98523.04
2019-01-19T22:50:46.834Z,98520.43
2019-01-19T22:53:20.444Z,98512.63
2019-01-19T22:55:54.345Z,98517.18
2019-01-19T22:58:28.505Z,98516.20
2019-01-19T23:02:02.526Z,98518.34
2019-01-19T23:04:37.980Z,98514.23
2019-01-19T23:07:12.578Z,98506.06
2019-01-19T23:09:44.509Z,98489.45
2019-01-19T23:12:16.583Z,98499.83
2019-01-19T23:14:49.948Z,98507.33
2019-01-19T23:17:23.567Z,98507.00
2019-01-19T23:19:57.578Z,98500.80
2019-01-19T23:22:29.005Z,98498.67
2019-01-19T23:25:00.869Z,98497.85
2019-01-19T23:27:33.585Z,98502.11
2019-01-19T23:30:08.029Z,98495.27
2019-01-19T23:32:41.649Z,98492.47
2019-01-19T23:35:15.540Z,98494.27
2019-01-19T23:37:50.505Z,98491.31
2019-01-19T23:40:23.718Z,98488.89
2019-01-19T23:42:57.657Z,98487.40
2019-01-19T23:45:33.177Z,98482.69
2019-01-19T23:48:06.588Z,98475.64
2019-01-19T23:50:39.502Z,98479.22
2019-01-19T23:53:10.759Z,98475.63
2019-01-19T23:55:44.764Z,98478.58
2019-01-19T23:58:18.862Z,98474.48
